sensor_id;sensor_type;location;lat;lon;timestamp;noise_LAeq;noise_LA_min;noise_LA_max;noise_LA01;noise_LA95
78273;Laerm;67530;52.282;5.972;2023-02-12T00:00:13;43.8;40.8;44.8;;
78273;Laerm;67530;52.282;5.972;2023-02-12T00:00:33;43.7;40.9;44.9;;
78273;Laerm;67530;52.282;5.972;2023-02-12T00:00:53;43.7;40.9;44.7;;
78273;Laerm;67530;52.282;5.972;2023-02-12T00:01:13;43.7;41.5;44.8;;
78273;Laerm;67530;52.282;5.972;2023-02-12T00:01:33;43.6;40.8;44.8;;
78273;Laerm;67530;52.282;5.972;2023-02-12T00:01:53;42.6;38.2;44.5;;
78273;Laerm;67530;52.282;5.972;2023-02-12T00:02:13;43.8;41.6;44.8;;
78273;Laerm;67530;52.282;5.972;2023-02-12T00:02:33;43.6;40.9;44.7;;
78273;Laerm;67530;52.282;5.972;2023-02-12T00:02:54;43.8;40.9;46.7;;
78273;Laerm;67530;52.282;5.972;2023-02-12T00:03:14;42.7;38;44.5;;
78273;Laerm;67530;52.282;5.972;2023-02-12T00:03:34;43.7;41.5;44.8;;
78273;Laerm;67530;52.282;5.972;2023-02-12T00:03:54;43;37.5;44.5;;
78273;Laerm;67530;52.282;5.972;2023-02-12T00:04:14;43.5;40;45.1;;
78273;Laerm;67530;52.282;5.972;2023-02-12T00:04:35;43.5;40.8;44.7;;
78273;Laerm;67530;52.282;5.972;2023-02-12T00:04:54;43.8;41.4;44.9;;
78273;Laerm;67530;52.282;5.972;2023-02-12T00:05:14;43.9;40.9;45;;
78273;Laerm;67530;52.282;5.972;2023-02-12T00:05:36;43.9;38.9;45.1;;
78273;Laerm;67530;52.282;5.972;2023-02-12T00:05:54;44;41.7;45;;
78273;Laerm;67530;52.282;5.972;2023-02-12T00:06:14;43.9;41.5;45;;
78273;Laerm;67530;52.282;5.972;2023-02-12T00:06:34;44;41.1;45.1;;
78273;Laerm;67530;52.282;5.972;2023-02-12T00:06:54;45.3;41.9;48.4;;
78273;Laerm;67530;52.282;5.972;2023-02-12T00:07:14;44.1;41.1;45;;
78273;Laerm;67530;52.282;5.972;2023-02-12T00:07:34;44.1;41.6;44.9;;
78273;Laerm;67530;52.282;5.972;2023-02-12T00:07:54;44;41.7;45.3;;
78273;Laerm;67530;52.282;5.972;2023-02-12T00:08:14;44.2;41.1;45.1;;
78273;Laerm;67530;52.282;5.972;2023-02-12T00:08:35;44.1;41.8;45.3;;
78273;Laerm;67530;52.282;5.972;2023-02-12T00:08:55;44.2;40.9;45.3;;
78273;Laerm;67530;52.282;5.972;2023-02-12T00:09:15;44;39.4;48.9;;
78273;Laerm;67530;52.282;5.972;2023-02-12T00:09:35;44.2;41;45.7;;
78273;Laerm;67530;52.282;5.972;2023-02-12T00:09:55;44.5;41.2;47.4;;
78273;Laerm;67530;52.282;5.972;2023-02-12T00:10:15;44;40.6;45.1;;
78273;Laerm;67530;52.282;5.972;2023-02-12T00:10:38;43.9;41.5;45.1;;
78273;Laerm;67530;52.282;5.972;2023-02-12T00:10:55;43.9;41.3;45.1;;
78273;Laerm;67530;52.282;5.972;2023-02-12T00:11:16;43.9;41.4;45.2;;
78273;Laerm;67530;52.282;5.972;2023-02-12T00:11:35;45;42.6;47.9;;
78273;Laerm;67530;52.282;5.972;2023-02-12T00:11:55;42.8;38.1;47.3;;
78273;Laerm;67530;52.282;5.972;2023-02-12T00:12:15;44;40.2;45.3;;
78273;Laerm;67530;52.282;5.972;2023-02-12T00:12:35;44.2;41.1;45.6;;
78273;Laerm;67530;52.282;5.972;2023-02-12T00:12:55;44.1;41.3;45.2;;
78273;Laerm;67530;52.282;5.972;2023-02-12T00:13:15;44.2;41.5;45.5;;
78273;Laerm;67530;52.282;5.972;2023-02-12T00:13:35;44.7;41.8;46.5;;
78273;Laerm;67530;52.282;5.972;2023-02-12T00:13:56;44.1;41.4;45.4;;
78273;Laerm;67530;52.282;5.972;2023-02-12T00:14:16;43.9;40.5;45.3;;
78273;Laerm;67530;52.282;5.972;2023-02-12T00:14:36;44;39.8;45.9;;
78273;Laerm;67530;52.282;5.972;2023-02-12T00:14:56;44.2;41.4;45.3;;
78273;Laerm;67530;52.282;5.972;2023-02-12T00:15:16;44.2;40.8;45.2;;
78273;Laerm;67530;52.282;5.972;2023-02-12T00:15:37;44;40.4;45.2;;
78273;Laerm;67530;52.282;5.972;2023-02-12T00:15:56;44;41.5;45;;
78273;Laerm;67530;52.282;5.972;2023-02-12T00:16:17;44;40.5;47.5;;
78273;Laerm;67530;52.282;5.972;2023-02-12T00:16:36;44.1;40.8;45.4;;
78273;Laerm;67530;52.282;5.972;2023-02-12T00:16:56;44.4;39.7;47;;
78273;Laerm;67530;52.282;5.972;2023-02-12T00:17:16;44.5;41.3;48.8;;
78273;Laerm;67530;52.282;5.972;2023-02-12T00:17:37;44.2;40.9;45.3;;
78273;Laerm;67530;52.282;5.972;2023-02-12T00:17:56;44.3;41.9;45.5;;
78273;Laerm;67530;52.282;5.972;2023-02-12T00:18:16;44.2;41.9;45.5;;
78273;Laerm;67530;52.282;5.972;2023-02-12T00:18:36;44.4;41.4;45.4;;
78273;Laerm;67530;52.282;5.972;2023-02-12T00:18:57;44.4;41.6;45.4;;
78273;Laerm;67530;52.282;5.972;2023-02-12T00:19:16;44.5;41.1;45.5;;
78273;Laerm;67530;52.282;5.972;2023-02-12T00:19:37;44.4;40.7;46.3;;
78273;Laerm;67530;52.282;5.972;2023-02-12T00:19:57;44;39.9;45.5;;
78273;Laerm;67530;52.282;5.972;2023-02-12T00:20:17;44.2;40.7;45.5;;
78273;Laerm;67530;52.282;5.972;2023-02-12T00:20:37;44.6;41.3;45.5;;
78273;Laerm;67530;52.282;5.972;2023-02-12T00:20:57;44.6;41.8;45.8;;
78273;Laerm;67530;52.282;5.972;2023-02-12T00:21:17;44.6;42.4;45.5;;
78273;Laerm;67530;52.282;5.972;2023-02-12T00:21:37;44.6;41.8;45.8;;
78273;Laerm;67530;52.282;5.972;2023-02-12T00:21:57;44.6;42.3;45.6;;
78273;Laerm;67530;52.282;5.972;2023-02-12T00:22:17;44.6;41.4;45.5;;
78273;Laerm;67530;52.282;5.972;2023-02-12T00:22:37;44.6;41.2;45.5;;
78273;Laerm;67530;52.282;5.972;2023-02-12T00:22:57;44.7;42.3;45.5;;
78273;Laerm;67530;52.282;5.972;2023-02-12T00:23:17;44.6;42.1;45.6;;
78273;Laerm;67530;52.282;5.972;2023-02-12T00:23:38;44.7;42.6;45.7;;
78273;Laerm;67530;52.282;5.972;2023-02-12T00:23:57;44.6;40.5;45.8;;
78273;Laerm;67530;52.282;5.972;2023-02-12T00:24:17;44.6;42.3;45.8;;
78273;Laerm;67530;52.282;5.972;2023-02-12T00:24:37;43.8;39.5;47.2;;
78273;Laerm;67530;52.282;5.972;2023-02-12T00:24:57;44.2;40.6;45.8;;
78273;Laerm;67530;52.282;5.972;2023-02-12T00:25:18;44.6;42;45.6;;
78273;Laerm;67530;52.282;5.972;2023-02-12T00:25:39;44.4;40.2;46.3;;
78273;Laerm;67530;52.282;5.972;2023-02-12T00:25:58;45.1;40.7;48.9;;
78273;Laerm;67530;52.282;5.972;2023-02-12T00:26:19;44.8;41.2;45.9;;
78273;Laerm;67530;52.282;5.972;2023-02-12T00:26:38;44.7;42.4;45.9;;
78273;Laerm;67530;52.282;5.972;2023-02-12T00:26:58;44.7;41.9;45.9;;
78273;Laerm;67530;52.282;5.972;2023-02-12T00:27:18;44.6;42;45.8;;
78273;Laerm;67530;52.282;5.972;2023-02-12T00:27:38;44.8;42;45.7;;
78273;Laerm;67530;52.282;5.972;2023-02-12T00:27:58;44.8;40.5;45.9;;
78273;Laerm;67530;52.282;5.972;2023-02-12T00:28:18;44.8;42;45.9;;
78273;Laerm;67530;52.282;5.972;2023-02-12T00:28:38;44.4;40.8;46.3;;
78273;Laerm;67530;52.282;5.972;2023-02-12T00:28:58;44.6;40.7;45.9;;
78273;Laerm;67530;52.282;5.972;2023-02-12T00:29:18;44.8;42.2;45.6;;
78273;Laerm;67530;52.282;5.972;2023-02-12T00:29:58;44.9;42.2;46;;
78273;Laerm;67530;52.282;5.972;2023-02-12T00:30:18;44.8;42.1;45.8;;
78273;Laerm;67530;52.282;5.972;2023-02-12T00:30:38;44.5;41.8;46.1;;
78273;Laerm;67530;52.282;5.972;2023-02-12T00:31:02;44.9;42.4;46.3;;
78273;Laerm;67530;52.282;5.972;2023-02-12T00:31:19;44.9;43.1;45.8;;
78273;Laerm;67530;52.282;5.972;2023-02-12T00:31:39;44.8;42.1;46.7;;
78273;Laerm;67530;52.282;5.972;2023-02-12T00:31:59;44.7;41.4;46;;
78273;Laerm;67530;52.282;5.972;2023-02-12T00:32:19;43.9;38.9;45.9;;
78273;Laerm;67530;52.282;5.972;2023-02-12T00:32:39;44.6;40.9;45.6;;
78273;Laerm;67530;52.282;5.972;2023-02-12T00:32:59;44.8;41.8;45.9;;
78273;Laerm;67530;52.282;5.972;2023-02-12T00:33:19;44.5;41.9;46.4;;
78273;Laerm;67530;52.282;5.972;2023-02-12T00:33:39;44.9;42.3;45.9;;
78273;Laerm;67530;52.282;5.972;2023-02-12T00:33:59;53;42.8;66.2;;
78273;Laerm;67530;52.282;5.972;2023-02-12T00:34:19;46;40.7;55.1;;
78273;Laerm;67530;52.282;5.972;2023-02-12T00:34:39;44.7;41.5;45.9;;
78273;Laerm;67530;52.282;5.972;2023-02-12T00:34:59;44.1;40.4;46.5;;
78273;Laerm;67530;52.282;5.972;2023-02-12T00:35:19;44.9;42.1;46.1;;
78273;Laerm;67530;52.282;5.972;2023-02-12T00:35:39;45;42.3;46.1;;
78273;Laerm;67530;52.282;5.972;2023-02-12T00:35:59;44.9;41.9;46.2;;
78273;Laerm;67530;52.282;5.972;2023-02-12T00:36:20;45;40.9;46.1;;
78273;Laerm;67530;52.282;5.972;2023-02-12T00:36:40;45.1;43.2;46.2;;
78273;Laerm;67530;52.282;5.972;2023-02-12T00:37:00;45.2;42.2;46.2;;
78273;Laerm;67530;52.282;5.972;2023-02-12T00:37:20;45.2;42.4;46.2;;
78273;Laerm;67530;52.282;5.972;2023-02-12T00:37:40;45.2;43.5;46.2;;
78273;Laerm;67530;52.282;5.972;2023-02-12T00:38:00;44.9;40.8;47.9;;
78273;Laerm;67530;52.282;5.972;2023-02-12T00:38:20;45.9;42.8;48.7;;
78273;Laerm;67530;52.282;5.972;2023-02-12T00:38:40;46.8;42.7;52.1;;
78273;Laerm;67530;52.282;5.972;2023-02-12T00:39:00;45.1;42.8;46.4;;
78273;Laerm;67530;52.282;5.972;2023-02-12T00:39:20;46.3;43.4;49.3;;
78273;Laerm;67530;52.282;5.972;2023-02-12T00:39:40;45.2;43.4;46.2;;
78273;Laerm;67530;52.282;5.972;2023-02-12T00:40:00;45.1;40.7;46;;
78273;Laerm;67530;52.282;5.972;2023-02-12T00:40:20;45.1;42;46.1;;
78273;Laerm;67530;52.282;5.972;2023-02-12T00:40:40;45.2;42.6;46.3;;
78273;Laerm;67530;52.282;5.972;2023-02-12T00:41:00;45.2;41.9;46.2;;
78273;Laerm;67530;52.282;5.972;2023-02-12T00:41:21;45.2;43.1;46.2;;
78273;Laerm;67530;52.282;5.972;2023-02-12T00:41:40;45.2;42.3;46.2;;
78273;Laerm;67530;52.282;5.972;2023-02-12T00:42:00;44.1;39.8;46;;
78273;Laerm;67530;52.282;5.972;2023-02-12T00:42:21;44.3;40.5;45.9;;
78273;Laerm;67530;52.282;5.972;2023-02-12T00:42:41;45.1;42.4;46.2;;
78273;Laerm;67530;52.282;5.972;2023-02-12T00:43:01;45.1;42.6;46.2;;
78273;Laerm;67530;52.282;5.972;2023-02-12T00:43:21;45.1;41.9;46;;
78273;Laerm;67530;52.282;5.972;2023-02-12T00:43:41;45.2;42.8;46.3;;
78273;Laerm;67530;52.282;5.972;2023-02-12T00:44:01;45.1;42.3;46;;
78273;Laerm;67530;52.282;5.972;2023-02-12T00:44:21;45.2;42.7;46.2;;
78273;Laerm;67530;52.282;5.972;2023-02-12T00:44:41;45.2;41;46.2;;
78273;Laerm;67530;52.282;5.972;2023-02-12T00:45:01;45.2;42.3;46.1;;
78273;Laerm;67530;52.282;5.972;2023-02-12T00:45:21;45.1;41.8;46.2;;
78273;Laerm;67530;52.282;5.972;2023-02-12T00:45:43;45.1;42.3;46.1;;
78273;Laerm;67530;52.282;5.972;2023-02-12T00:46:01;45.1;42.6;46;;
78273;Laerm;67530;52.282;5.972;2023-02-12T00:46:21;45;42.3;45.9;;
78273;Laerm;67530;52.282;5.972;2023-02-12T00:46:41;44.9;41.5;46.3;;
78273;Laerm;67530;52.282;5.972;2023-02-12T00:47:01;44.5;40.9;46.1;;
78273;Laerm;67530;52.282;5.972;2023-02-12T00:47:21;44.2;40.7;46.4;;
78273;Laerm;67530;52.282;5.972;2023-02-12T00:47:42;45.1;42.7;46;;
78273;Laerm;67530;52.282;5.972;2023-02-12T00:48:02;45.1;42.4;46.3;;
78273;Laerm;67530;52.282;5.972;2023-02-12T00:48:22;45.1;42.1;46.1;;
78273;Laerm;67530;52.282;5.972;2023-02-12T00:48:42;45.1;42.6;46.1;;
78273;Laerm;67530;52.282;5.972;2023-02-12T00:49:02;45;42.2;46;;
78273;Laerm;67530;52.282;5.972;2023-02-12T00:49:22;45.1;42.5;46;;
78273;Laerm;67530;52.282;5.972;2023-02-12T00:49:42;45.4;43.1;46.8;;
78273;Laerm;67530;52.282;5.972;2023-02-12T00:50:02;45.2;41.3;46.1;;
78273;Laerm;67530;52.282;5.972;2023-02-12T00:50:22;44.5;40.2;46;;
78273;Laerm;67530;52.282;5.972;2023-02-12T00:50:43;45.1;42.2;46;;
78273;Laerm;67530;52.282;5.972;2023-02-12T00:51:02;45.1;43.2;46.2;;
78273;Laerm;67530;52.282;5.972;2023-02-12T00:51:22;45.6;41.9;49.9;;
78273;Laerm;67530;52.282;5.972;2023-02-12T00:51:42;45.2;43.1;46.1;;
78273;Laerm;67530;52.282;5.972;2023-02-12T00:52:03;45.1;42;46.3;;
78273;Laerm;67530;52.282;5.972;2023-02-12T00:52:22;45.2;42.4;46.2;;
78273;Laerm;67530;52.282;5.972;2023-02-12T00:52:42;45.2;43;46.2;;
78273;Laerm;67530;52.282;5.972;2023-02-12T00:53:02;45.2;41.4;46.2;;
78273;Laerm;67530;52.282;5.972;2023-02-12T00:53:23;45.3;42.9;46.6;;
78273;Laerm;67530;52.282;5.972;2023-02-12T00:53:43;45.3;42.7;46.3;;
78273;Laerm;67530;52.282;5.972;2023-02-12T00:54:03;45.2;42.6;46.2;;
78273;Laerm;67530;52.282;5.972;2023-02-12T00:54:23;45.8;42.6;48;;
78273;Laerm;67530;52.282;5.972;2023-02-12T00:54:43;46;43.4;48.6;;
78273;Laerm;67530;52.282;5.972;2023-02-12T00:55:03;45.2;42.8;46.1;;
78273;Laerm;67530;52.282;5.972;2023-02-12T00:55:23;45.2;42.9;46.2;;
78273;Laerm;67530;52.282;5.972;2023-02-12T00:55:43;45.4;42.3;46.6;;
78273;Laerm;67530;52.282;5.972;2023-02-12T00:56:03;45.3;42.3;46.5;;
78273;Laerm;67530;52.282;5.972;2023-02-12T00:56:23;45.2;41.9;46.5;;
78273;Laerm;67530;52.282;5.972;2023-02-12T00:56:43;45.4;41.1;49.7;;
78273;Laerm;67530;52.282;5.972;2023-02-12T00:57:03;45.5;42.3;47.4;;
78273;Laerm;67530;52.282;5.972;2023-02-12T00:57:23;45.4;43;46.3;;
78273;Laerm;67530;52.282;5.972;2023-02-12T00:57:43;43.3;39.4;46.2;;
78273;Laerm;67530;52.282;5.972;2023-02-12T00:58:03;45.3;42;46.4;;
78273;Laerm;67530;52.282;5.972;2023-02-12T00:58:23;45.3;41.8;46.5;;
78273;Laerm;67530;52.282;5.972;2023-02-12T00:58:43;45.4;41.9;46.4;;
78273;Laerm;67530;52.282;5.972;2023-02-12T00:59:04;45.4;43;46.2;;
78273;Laerm;67530;52.282;5.972;2023-02-12T00:59:24;45.5;43;46.5;;
78273;Laerm;67530;52.282;5.972;2023-02-12T00:59:44;46;43;48.3;;
78273;Laerm;67530;52.282;5.972;2023-02-12T01:00:04;46.3;42.9;48.8;;
78273;Laerm;67530;52.282;5.972;2023-02-12T01:00:24;45.2;41.8;46.3;;
78273;Laerm;67530;52.282;5.972;2023-02-12T01:00:44;45.2;42.3;46.3;;
78273;Laerm;67530;52.282;5.972;2023-02-12T01:01:04;45.3;42.3;46.4;;
78273;Laerm;67530;52.282;5.972;2023-02-12T01:01:24;45.1;39.6;46.2;;
78273;Laerm;67530;52.282;5.972;2023-02-12T01:01:44;46.2;42.9;49.8;;
78273;Laerm;67530;52.282;5.972;2023-02-12T01:02:04;45.2;42.2;46.1;;
78273;Laerm;67530;52.282;5.972;2023-02-12T01:02:24;45.4;42.7;46.5;;
78273;Laerm;67530;52.282;5.972;2023-02-12T01:02:44;45.3;43.3;46.3;;
78273;Laerm;67530;52.282;5.972;2023-02-12T01:03:04;45.4;42.4;46.2;;
78273;Laerm;67530;52.282;5.972;2023-02-12T01:03:24;45.4;42.1;47.8;;
78273;Laerm;67530;52.282;5.972;2023-02-12T01:03:44;45.4;42;46.6;;
78273;Laerm;67530;52.282;5.972;2023-02-12T01:04:04;45.6;42.8;47.6;;
78273;Laerm;67530;52.282;5.972;2023-02-12T01:04:25;45.4;42.9;46.5;;
78273;Laerm;67530;52.282;5.972;2023-02-12T01:04:45;45.4;41.9;46.5;;
78273;Laerm;67530;52.282;5.972;2023-02-12T01:05:05;45.4;42.6;46.5;;
78273;Laerm;67530;52.282;5.972;2023-02-12T01:05:25;45.3;42.7;46.6;;
78273;Laerm;67530;52.282;5.972;2023-02-12T01:05:45;45.3;42.5;46.5;;
78273;Laerm;67530;52.282;5.972;2023-02-12T01:06:05;45.4;42.7;46.6;;
78273;Laerm;67530;52.282;5.972;2023-02-12T01:06:25;45.3;42.1;46.3;;
78273;Laerm;67530;52.282;5.972;2023-02-12T01:06:45;45.4;43;46.5;;
78273;Laerm;67530;52.282;5.972;2023-02-12T01:07:05;44.9;40.4;47.4;;
78273;Laerm;67530;52.282;5.972;2023-02-12T01:07:25;45.3;42.8;46.4;;
78273;Laerm;67530;52.282;5.972;2023-02-12T01:07:47;45.4;41;46.4;;
78273;Laerm;67530;52.282;5.972;2023-02-12T01:08:05;45.5;42.3;46.4;;
78273;Laerm;67530;52.282;5.972;2023-02-12T01:08:25;45.5;42.6;46.5;;
78273;Laerm;67530;52.282;5.972;2023-02-12T01:08:48;45.6;43.2;46.8;;
78273;Laerm;67530;52.282;5.972;2023-02-12T01:09:05;45.6;41.1;47.2;;
78273;Laerm;67530;52.282;5.972;2023-02-12T01:09:25;45.2;41.9;46.7;;
78273;Laerm;67530;52.282;5.972;2023-02-12T01:09:46;45.6;41.9;48.9;;
78273;Laerm;67530;52.282;5.972;2023-02-12T01:10:06;45.4;42.3;46.6;;
78273;Laerm;67530;52.282;5.972;2023-02-12T01:10:26;45.5;41.4;46.8;;
78273;Laerm;67530;52.282;5.972;2023-02-12T01:10:52;45.8;42.4;46.9;;
78273;Laerm;67530;52.282;5.972;2023-02-12T01:11:06;45.8;42.5;47.1;;
78273;Laerm;67530;52.282;5.972;2023-02-12T01:11:26;45.7;41.6;47;;
78273;Laerm;67530;52.282;5.972;2023-02-12T01:11:46;46.1;43.1;47;;
78273;Laerm;67530;52.282;5.972;2023-02-12T01:12:06;46.1;43;47.2;;
78273;Laerm;67530;52.282;5.972;2023-02-12T01:12:26;46.7;42.3;48.8;;
78273;Laerm;67530;52.282;5.972;2023-02-12T01:12:46;46.2;43.3;47.4;;
78273;Laerm;67530;52.282;5.972;2023-02-12T01:13:06;46.3;43.5;47.4;;
78273;Laerm;67530;52.282;5.972;2023-02-12T01:13:26;46.2;41.8;47.3;;
78273;Laerm;67530;52.282;5.972;2023-02-12T01:13:46;46.3;43.8;47.7;;
78273;Laerm;67530;52.282;5.972;2023-02-12T01:14:06;46;43.4;47.3;;
78273;Laerm;67530;52.282;5.972;2023-02-12T01:14:26;44.6;40.6;47.5;;
78273;Laerm;67530;52.282;5.972;2023-02-12T01:14:46;46.3;43.3;47.6;;
78273;Laerm;67530;52.282;5.972;2023-02-12T01:15:07;46.1;41.3;47.3;;
78273;Laerm;67530;52.282;5.972;2023-02-12T01:15:27;45.5;41.6;47.3;;
78273;Laerm;67530;52.282;5.972;2023-02-12T01:15:47;46.4;44.8;47.7;;
78273;Laerm;67530;52.282;5.972;2023-02-12T01:16:07;45.7;43;48.1;;
78273;Laerm;67530;52.282;5.972;2023-02-12T01:16:27;46.2;43.3;47.3;;
78273;Laerm;67530;52.282;5.972;2023-02-12T01:16:47;46.3;43.8;47.4;;
78273;Laerm;67530;52.282;5.972;2023-02-12T01:17:07;46.4;43.8;47.5;;
78273;Laerm;67530;52.282;5.972;2023-02-12T01:17:27;46.3;42.7;47.4;;
78273;Laerm;67530;52.282;5.972;2023-02-12T01:17:47;46.3;43.6;47.6;;
78273;Laerm;67530;52.282;5.972;2023-02-12T01:18:07;45.5;41.9;47.1;;
78273;Laerm;67530;52.282;5.972;2023-02-12T01:18:27;46.4;44.3;47.5;;
78273;Laerm;67530;52.282;5.972;2023-02-12T01:18:47;46.3;43.4;47.5;;
78273;Laerm;67530;52.282;5.972;2023-02-12T01:19:09;46.3;42.3;47.4;;
78273;Laerm;67530;52.282;5.972;2023-02-12T01:19:27;44.7;40.9;47;;
78273;Laerm;67530;52.282;5.972;2023-02-12T01:19:47;45.4;42.1;47.3;;
78273;Laerm;67530;52.282;5.972;2023-02-12T01:20:08;46.6;44.1;47.8;;
78273;Laerm;67530;52.282;5.972;2023-02-12T01:20:27;46.6;43.8;47.7;;
78273;Laerm;67530;52.282;5.972;2023-02-12T01:20:48;46.8;44.5;47.7;;
78273;Laerm;67530;52.282;5.972;2023-02-12T01:21:08;46.7;43.5;47.9;;
78273;Laerm;67530;52.282;5.972;2023-02-12T01:21:28;46.7;43.9;47.6;;
78273;Laerm;67530;52.282;5.972;2023-02-12T01:21:48;46.8;43.9;47.9;;
78273;Laerm;67530;52.282;5.972;2023-02-12T01:22:08;46.8;44;47.9;;
78273;Laerm;67530;52.282;5.972;2023-02-12T01:22:28;46.8;44;48;;
78273;Laerm;67530;52.282;5.972;2023-02-12T01:22:48;46.9;43.3;47.9;;
78273;Laerm;67530;52.282;5.972;2023-02-12T01:23:08;46.5;42.4;47.8;;
78273;Laerm;67530;52.282;5.972;2023-02-12T01:23:28;46.6;42.9;48.7;;
78273;Laerm;67530;52.282;5.972;2023-02-12T01:23:48;46.5;42.2;47.8;;
78273;Laerm;67530;52.282;5.972;2023-02-12T01:24:08;46.9;45.5;47.9;;
78273;Laerm;67530;52.282;5.972;2023-02-12T01:24:28;46.8;44;47.7;;
78273;Laerm;67530;52.282;5.972;2023-02-12T01:24:48;46.9;43.6;48.1;;
78273;Laerm;67530;52.282;5.972;2023-02-12T01:25:08;46.9;44.4;47.9;;
78273;Laerm;67530;52.282;5.972;2023-02-12T01:25:28;46.8;42.9;47.9;;
78273;Laerm;67530;52.282;5.972;2023-02-12T01:25:48;46.7;42.2;48;;
78273;Laerm;67530;52.282;5.972;2023-02-12T01:26:09;46.6;41.6;47.8;;
78273;Laerm;67530;52.282;5.972;2023-02-12T01:26:29;46.8;43.1;47.8;;
78273;Laerm;67530;52.282;5.972;2023-02-12T01:26:49;46.8;44.3;47.7;;
78273;Laerm;67530;52.282;5.972;2023-02-12T01:27:09;46.8;44.2;47.9;;
78273;Laerm;67530;52.282;5.972;2023-02-12T01:27:29;46.5;42.6;47.7;;
78273;Laerm;67530;52.282;5.972;2023-02-12T01:27:51;46.1;42.1;47.5;;
78273;Laerm;67530;52.282;5.972;2023-02-12T01:28:09;46.8;43.6;47.9;;
78273;Laerm;67530;52.282;5.972;2023-02-12T01:28:29;46.7;43.2;47.7;;
78273;Laerm;67530;52.282;5.972;2023-02-12T01:28:49;46.7;44.6;47.6;;
78273;Laerm;67530;52.282;5.972;2023-02-12T01:29:09;46.7;44;47.7;;
78273;Laerm;67530;52.282;5.972;2023-02-12T01:29:29;46.7;44.1;47.5;;
78273;Laerm;67530;52.282;5.972;2023-02-12T01:29:49;46.7;44.3;47.6;;
78273;Laerm;67530;52.282;5.972;2023-02-12T01:30:11;46.7;42.5;47.7;;
78273;Laerm;67530;52.282;5.972;2023-02-12T01:30:29;46.8;43.8;47.7;;
78273;Laerm;67530;52.282;5.972;2023-02-12T01:30:49;46.7;43.4;47.8;;
78273;Laerm;67530;52.282;5.972;2023-02-12T01:31:10;46.8;43.4;47.7;;
78273;Laerm;67530;52.282;5.972;2023-02-12T01:31:32;46.8;44.2;47.8;;
78273;Laerm;67530;52.282;5.972;2023-02-12T01:31:50;46.7;44.1;47.9;;
78273;Laerm;67530;52.282;5.972;2023-02-12T01:32:10;46.8;43.6;47.8;;
78273;Laerm;67530;52.282;5.972;2023-02-12T01:32:30;46.8;44;47.7;;
78273;Laerm;67530;52.282;5.972;2023-02-12T01:32:50;46.8;43.9;47.8;;
78273;Laerm;67530;52.282;5.972;2023-02-12T01:33:10;46.8;42.3;47.8;;
78273;Laerm;67530;52.282;5.972;2023-02-12T01:33:30;46.7;43.2;47.8;;
78273;Laerm;67530;52.282;5.972;2023-02-12T01:33:51;46.8;44.3;47.9;;
78273;Laerm;67530;52.282;5.972;2023-02-12T01:34:10;46.8;44;48;;
78273;Laerm;67530;52.282;5.972;2023-02-12T01:34:30;46.9;44.4;47.9;;
78273;Laerm;67530;52.282;5.972;2023-02-12T01:34:50;46.9;43.2;48;;
78273;Laerm;67530;52.282;5.972;2023-02-12T01:35:10;47;44.6;49.1;;
78273;Laerm;67530;52.282;5.972;2023-02-12T01:35:30;47;44.7;48;;
78273;Laerm;67530;52.282;5.972;2023-02-12T01:35:50;47;44.6;47.9;;
78273;Laerm;67530;52.282;5.972;2023-02-12T01:36:10;47.1;44.3;48;;
78273;Laerm;67530;52.282;5.972;2023-02-12T01:36:30;47;44.9;48.2;;
78273;Laerm;67530;52.282;5.972;2023-02-12T01:37:10;47;44.7;48.2;;
78273;Laerm;67530;52.282;5.972;2023-02-12T01:37:30;47;44.5;48;;
78273;Laerm;67530;52.282;5.972;2023-02-12T01:37:51;46.7;42.7;47.9;;
78273;Laerm;67530;52.282;5.972;2023-02-12T01:38:11;46.5;41.9;48;;
78273;Laerm;67530;52.282;5.972;2023-02-12T01:38:31;46.9;44.5;48;;
78273;Laerm;67530;52.282;5.972;2023-02-12T01:38:51;47.1;44.3;47.9;;
78273;Laerm;67530;52.282;5.972;2023-02-12T01:39:11;47.1;44.4;48.1;;
78273;Laerm;67530;52.282;5.972;2023-02-12T01:39:31;47.1;44.8;48.4;;
78273;Laerm;67530;52.282;5.972;2023-02-12T01:39:51;45.9;43.1;48.5;;
78273;Laerm;67530;52.282;5.972;2023-02-12T01:40:11;47.2;44.8;48.4;;
78273;Laerm;67530;52.282;5.972;2023-02-12T01:40:31;47.2;44.9;48.2;;
78273;Laerm;67530;52.282;5.972;2023-02-12T01:40:51;47.3;44.2;48.2;;
78273;Laerm;67530;52.282;5.972;2023-02-12T01:41:12;47.2;44.1;48.3;;
78273;Laerm;67530;52.282;5.972;2023-02-12T01:41:32;47.3;44.8;48.3;;
78273;Laerm;67530;52.282;5.972;2023-02-12T01:41:51;47.4;45.3;48.6;;
78273;Laerm;67530;52.282;5.972;2023-02-12T01:42:12;47.3;45.4;48.1;;
78273;Laerm;67530;52.282;5.972;2023-02-12T01:42:31;47.4;45;48.4;;
78273;Laerm;67530;52.282;5.972;2023-02-12T01:42:51;47.4;44.7;48.5;;
78273;Laerm;67530;52.282;5.972;2023-02-12T01:43:12;47.4;44;48.4;;
78273;Laerm;67530;52.282;5.972;2023-02-12T01:43:32;47.5;45.2;48.6;;
78273;Laerm;67530;52.282;5.972;2023-02-12T01:44:08;46.6;42;48.4;;
78273;Laerm;67530;52.282;5.972;2023-02-12T01:44:13;47.5;44.8;48.8;;
78273;Laerm;67530;52.282;5.972;2023-02-12T01:44:33;47.6;45.2;48.9;;
78273;Laerm;67530;52.282;5.972;2023-02-12T01:45:37;47.6;44.1;49;;
78273;Laerm;67530;52.282;5.972;2023-02-12T01:45:45;47.8;45.9;48.9;;
78273;Laerm;67530;52.282;5.972;2023-02-12T01:45:52;47.8;45.4;48.8;;
78273;Laerm;67530;52.282;5.972;2023-02-12T01:45:58;47.8;45.4;49;;
78273;Laerm;67530;52.282;5.972;2023-02-12T01:46:13;47.7;45.1;48.9;;
78273;Laerm;67530;52.282;5.972;2023-02-12T01:46:32;47.8;45.4;48.8;;
78273;Laerm;67530;52.282;5.972;2023-02-12T01:46:53;47.8;45.5;49;;
78273;Laerm;67530;52.282;5.972;2023-02-12T01:47:14;47.8;45.6;48.9;;
78273;Laerm;67530;52.282;5.972;2023-02-12T01:47:32;47.8;45;48.7;;
78273;Laerm;67530;52.282;5.972;2023-02-12T01:47:52;47.7;43.8;49.1;;
78273;Laerm;67530;52.282;5.972;2023-02-12T01:48:13;47.7;43.1;49;;
78273;Laerm;67530;52.282;5.972;2023-02-12T01:48:35;47.9;45.3;49.1;;
78273;Laerm;67530;52.282;5.972;2023-02-12T01:48:53;47.9;44.9;48.9;;
78273;Laerm;67530;52.282;5.972;2023-02-12T01:49:14;47.9;45.9;49.1;;
78273;Laerm;67530;52.282;5.972;2023-02-12T01:49:34;48;44.4;49;;
78273;Laerm;67530;52.282;5.972;2023-02-12T01:49:53;48.1;44.8;49.2;;
78273;Laerm;67530;52.282;5.972;2023-02-12T01:50:13;48;45.9;49;;
78273;Laerm;67530;52.282;5.972;2023-02-12T01:50:33;48.2;44.6;49.1;;
78273;Laerm;67530;52.282;5.972;2023-02-12T01:50:53;48.2;46.7;49.1;;
78273;Laerm;67530;52.282;5.972;2023-02-12T01:51:13;48.2;45.5;49.3;;
78273;Laerm;67530;52.282;5.972;2023-02-12T01:51:33;48.1;45.6;49.2;;
78273;Laerm;67530;52.282;5.972;2023-02-12T01:51:54;48.1;46.2;49.3;;
78273;Laerm;67530;52.282;5.972;2023-02-12T01:52:14;48.1;45.6;49;;
78273;Laerm;67530;52.282;5.972;2023-02-12T01:52:34;48.1;44.3;49.2;;
78273;Laerm;67530;52.282;5.972;2023-02-12T01:52:54;48.2;45.5;49.2;;
78273;Laerm;67530;52.282;5.972;2023-02-12T01:53:13;48.2;45.7;49.1;;
78273;Laerm;67530;52.282;5.972;2023-02-12T01:53:34;48.2;46.3;49.4;;
78273;Laerm;67530;52.282;5.972;2023-02-12T01:53:54;48.2;45.6;49.1;;
78273;Laerm;67530;52.282;5.972;2023-02-12T01:54:14;48.3;46.5;49.2;;
78273;Laerm;67530;52.282;5.972;2023-02-12T01:54:34;48.2;44.3;49.2;;
78273;Laerm;67530;52.282;5.972;2023-02-12T01:54:54;48.2;45.5;49.4;;
78273;Laerm;67530;52.282;5.972;2023-02-12T01:55:14;48.3;45.4;49.5;;
78273;Laerm;67530;52.282;5.972;2023-02-12T01:55:34;48.3;44.7;49.3;;
78273;Laerm;67530;52.282;5.972;2023-02-12T01:55:56;48.2;45.7;49.3;;
78273;Laerm;67530;52.282;5.972;2023-02-12T01:56:14;48.3;45;49.4;;
78273;Laerm;67530;52.282;5.972;2023-02-12T01:56:34;48.2;46;49.3;;
78273;Laerm;67530;52.282;5.972;2023-02-12T01:56:54;48.2;44.9;49.3;;
78273;Laerm;67530;52.282;5.972;2023-02-12T01:57:14;48.2;45.9;49.2;;
78273;Laerm;67530;52.282;5.972;2023-02-12T01:57:35;48.2;44.3;49.4;;
78273;Laerm;67530;52.282;5.972;2023-02-12T01:57:54;48.1;45.5;49.1;;
78273;Laerm;67530;52.282;5.972;2023-02-12T01:58:14;48.3;44.5;49.1;;
78273;Laerm;67530;52.282;5.972;2023-02-12T01:58:36;48.1;45.3;49.2;;
78273;Laerm;67530;52.282;5.972;2023-02-12T01:58:54;48.2;45.7;49.2;;